Milwaukee, Wisconsin
Traffic Map
Current Weather Conditions
Milwaukee, Wisconsin
Broken Clouds
Broken Clouds
18°
Feels Like: 18°
Wind Chill: 18° Ceiling: 4200
Heat Index: 18° Visibility: 10mi
Dew Point: Wind: 15mph
Humidity: 56% Direction: 40° (NE)
Pressure: 30.03in Gusts: 23mph
Raw Report DataKMKE 071652Z 04013G20KT 10SM BKN042 18/09 A3003 RMK AO2 SLP168 T01830094
Traffic Incident Summary
Active as of:
Severity:
Category:
InformationThere was an issue retrieving the traffic information for this location. Please try a different location or try again shortly.
Advertisements
Track Severe Weather on mobile